Time;durP1;ratioP1;P1;durP2;ratioP2;P2;SDS_P1;SDS_P2;PMS_P1;PMS_P2;Temp;Humidity;BMP_temperature;BMP_pressure;BME280_temperature;BME280_humidity;BME280_pressure;Samples;Min_cycle;Max_cycle;Signal;HPM_P1;HPM_P2
2023/05/27 06:15:30;;;;;;;;;11.00;10.00;;;;;17.64;36.17;101787.91;5695645;23;46231;-77
2023/05/27 06:17:55;;;;;;;;;11.25;8.75;;;;;17.65;36.04;101773.72;4980123;28;45314;-73
2023/05/27 06:20:22;;;;;;;;;7.50;7.00;;;;;17.66;36.53;101780.75;4977646;28;45507;-72
2023/05/27 06:22:47;;;;;;;;;8.75;7.50;;;;;17.67;36.36;101779.84;4969389;28;45436;-73
2023/05/27 06:25:13;;;;;;;;;8.25;8.25;;;;;17.69;36.67;101786.84;4979579;28;45652;-73
2023/05/27 06:27:38;;;;;;;;;11.25;6.50;;;;;17.70;36.42;101785.09;4980063;28;45242;-73
2023/05/27 06:30:04;;;;;;;;;7.00;5.50;;;;;17.73;36.51;101789.44;4980073;28;45218;-72
2023/05/27 06:32:30;;;;;;;;;7.25;6.00;;;;;17.72;36.33;101783.22;4988087;28;45311;-72
2023/05/27 06:34:55;;;;;;;;;10.00;9.00;;;;;17.76;36.58;101781.38;4968471;28;45279;-72
2023/05/27 06:37:21;;;;;;;;;10.50;7.00;;;;;17.77;36.20;101780.47;4971469;28;45316;-72
2023/05/27 06:39:46;;;;;;;;;7.75;5.75;;;;;17.78;36.39;101787.53;4970282;28;45965;-72
2023/05/27 06:42:11;;;;;;;;;10.25;6.00;;;;;17.81;36.48;101784.75;4997500;28;45409;-72
2023/05/27 06:44:37;;;;;;;;;8.50;6.00;;;;;17.79;36.44;101782.16;4961731;28;46261;-72
2023/05/27 06:47:02;;;;;;;;;6.00;6.00;;;;;17.82;36.36;101790.06;4968693;28;45356;-72
2023/05/27 06:49:28;;;;;;;;;7.25;6.75;;;;;17.85;36.41;101774.00;4982575;28;45443;-72
2023/05/27 06:51:53;;;;;;;;;8.50;7.75;;;;;17.87;36.25;101779.28;4963664;28;45571;-72
2023/05/27 06:54:18;;;;;;;;;10.00;7.50;;;;;17.87;36.57;101782.81;4969599;28;45290;-72
2023/05/27 06:56:44;;;;;;;;;10.00;7.25;;;;;17.90;36.55;101770.34;4961697;28;54023;-72
2023/05/27 06:59:09;;;;;;;;;10.50;9.75;;;;;17.91;36.62;101767.66;4975947;28;45465;-73
2023/05/27 07:01:35;;;;;;;;;10.00;10.00;;;;;17.92;36.57;101768.53;4961406;28;45493;-72
2023/05/27 07:04:00;;;;;;;;;7.25;6.50;;;;;17.94;36.46;101777.38;4962730;28;46062;-72
2023/05/27 07:06:25;;;;;;;;;8.25;7.50;;;;;17.96;36.61;101767.53;4970737;28;45570;-73
2023/05/27 07:08:51;;;;;;;;;9.25;6.75;;;;;17.99;36.41;101776.31;4963331;28;45531;-72
2023/05/27 07:11:16;;;;;;;;;11.25;8.50;;;;;18.02;36.60;101767.38;4962854;28;45374;-73
2023/05/27 07:13:41;;;;;;;;;12.00;11.00;;;;;18.05;36.69;101769.06;4963141;28;45288;-72
2023/05/27 07:16:07;;;;;;;;;7.25;7.25;;;;;18.08;36.67;101774.31;4963061;28;45256;-74
2023/05/27 07:18:32;;;;;;;;;12.00;7.75;;;;;18.08;36.70;101763.69;4963191;28;45228;-73
2023/05/27 07:20:57;;;;;;;;;8.75;8.00;;;;;18.14;36.52;101774.13;4962875;28;45231;-72
2023/05/27 07:23:23;;;;;;;;;8.25;7.00;;;;;18.17;37.02;101761.59;4973081;28;45329;-72
2023/05/27 07:25:48;;;;;;;;;8.00;5.50;;;;;18.18;36.67;101752.69;4963535;28;45243;-72
2023/05/27 07:28:13;;;;;;;;;8.50;6.00;;;;;18.22;36.72;101747.28;4963284;28;45294;-72
2023/05/27 07:30:39;;;;;;;;;8.50;8.00;;;;;18.26;36.78;101743.63;4963786;28;45371;-72
2023/05/27 07:33:04;;;;;;;;;12.50;9.50;;;;;18.28;36.84;101752.44;4987656;28;46192;-72
2023/05/27 07:35:29;;;;;;;;;13.50;10.75;;;;;18.32;36.78;101746.09;4963050;28;45248;-65
2023/05/27 07:37:55;;;;;;;;;9.50;7.50;;;;;18.37;36.70;101743.31;4962848;28;45333;-64
2023/05/27 07:40:20;;;;;;;;;9.00;7.00;;;;;18.41;36.82;101745.78;4962807;28;45156;-63
2023/05/27 07:42:46;;;;;;;;;7.00;6.50;;;;;18.46;36.75;101745.66;4962700;28;45235;-65
2023/05/27 07:45:11;;;;;;;;;13.75;10.00;;;;;18.49;36.70;101738.47;4961587;28;45272;-61
2023/05/27 07:47:36;;;;;;;;;9.00;7.25;;;;;18.53;36.76;101744.56;4962997;28;45315;-71
2023/05/27 07:50:03;;;;;;;;;9.00;7.00;;;;;18.56;36.79;101743.59;4961061;28;45405;-67
2023/05/27 07:52:28;;;;;;;;;7.00;5.50;;;;;18.60;36.95;101731.91;4966164;28;45484;-62
2023/05/27 07:54:53;;;;;;;;;12.25;9.75;;;;;18.67;36.90;101738.78;4979953;28;45731;-60
2023/05/27 07:57:22;;;;;;;;;8.50;7.75;;;;;18.68;36.95;101733.41;4981911;28;45402;-64
2023/05/27 07:59:47;;;;;;;;;9.50;8.00;;;;;18.75;37.00;101736.72;4981875;28;45535;-59
2023/05/27 08:02:12;;;;;;;;;10.00;6.00;;;;;18.81;37.21;101736.53;4981777;28;45160;-64
2023/05/27 08:04:38;;;;;;;;;9.00;7.25;;;;;18.84;37.03;101735.56;4981911;28;45239;-65
2023/05/27 08:07:03;;;;;;;;;11.25;9.00;;;;;18.88;37.26;101733.66;4968664;28;49521;-62
2023/05/27 08:09:28;;;;;;;;;9.75;8.75;;;;;18.94;37.15;101730.84;4962316;28;45576;-60
2023/05/27 08:11:54;;;;;;;;;9.00;7.25;;;;;18.98;37.11;101730.69;4961862;28;54490;-62
2023/05/27 08:14:20;;;;;;;;;10.00;9.00;;;;;19.01;37.24;101716.41;4962054;28;45338;-62
2023/05/27 08:16:46;;;;;;;;;11.75;9.00;;;;;19.12;36.89;101721.38;4961898;28;45227;-67
2023/05/27 08:19:11;;;;;;;;;11.75;8.00;;;;;19.14;37.26;101717.72;4961770;28;45284;-65
2023/05/27 08:21:36;;;;;;;;;8.75;8.25;;;;;19.26;36.60;101718.22;4961422;28;48734;-60
2023/05/27 08:24:05;;;;;;;;;14.00;7.00;;;;;19.31;36.94;101713.59;4976864;28;45507;-62
2023/05/27 08:26:30;;;;;;;;;9.25;7.50;;;;;19.43;36.81;101720.25;4981617;28;45379;-62
2023/05/27 08:28:56;;;;;;;;;7.50;6.75;;;;;19.47;36.79;101714.78;4981493;28;45360;-62
2023/05/27 08:31:21;;;;;;;;;11.00;9.00;;;;;19.53;37.04;101707.47;4988215;28;46299;-62
2023/05/27 08:33:46;;;;;;;;;10.50;9.00;;;;;19.60;36.99;101709.88;4980286;28;45434;-61
2023/05/27 08:36:14;;;;;;;;;9.75;8.00;;;;;19.67;36.89;101706.97;4981365;28;45266;-60
2023/05/27 08:38:40;;;;;;;;;21.50;19.25;;;;;19.73;36.94;101706.75;4980084;28;45515;-62
2023/05/27 08:41:05;;;;;;;;;9.75;9.75;;;;;19.77;37.30;101705.69;4981053;28;46028;-60
2023/05/27 08:43:32;;;;;;;;;10.00;8.75;;;;;19.83;37.39;101702.84;4981044;28;45272;-60
2023/05/27 08:45:58;;;;;;;;;9.00;7.75;;;;;19.90;37.35;101703.47;4981541;28;45329;-70
2023/05/27 08:48:24;;;;;;;;;10.25;10.00;;;;;19.95;37.53;101702.38;4979742;28;45482;-67
2023/05/27 08:50:49;;;;;;;;;11.00;8.25;;;;;19.96;36.93;101697.88;4963595;28;46733;-63
2023/05/27 08:53:17;;;;;;;;;11.00;8.75;;;;;20.05;37.21;101694.00;4968366;28;45619;-62
2023/05/27 08:55:44;;;;;;;;;9.25;8.25;;;;;20.11;37.47;101694.66;4960320;28;45268;-66
2023/05/27 08:58:11;;;;;;;;;11.50;9.50;;;;;20.17;37.42;101690.00;4961567;28;45394;-62
2023/05/27 09:00:36;;;;;;;;;14.75;8.75;;;;;20.22;37.45;101693.34;4961682;28;45470;-62
2023/05/27 09:03:02;;;;;;;;;8.75;8.00;;;;;20.26;37.64;101684.28;4960608;28;45830;-60
2023/05/27 09:05:28;;;;;;;;;10.75;7.25;;;;;20.30;37.16;101688.56;4967665;28;45441;-61
2023/05/27 09:07:55;;;;;;;;;13.00;9.50;;;;;20.37;37.60;101686.53;4961958;28;45395;-60
2023/05/27 09:10:20;;;;;;;;;11.00;9.00;;;;;20.41;37.23;101686.31;4961251;28;45434;-62
2023/05/27 09:12:47;;;;;;;;;12.50;12.50;;;;;20.47;37.67;101685.22;4961184;28;45322;-61
2023/05/27 09:15:13;;;;;;;;;10.75;10.00;;;;;20.52;37.68;101674.34;4961199;28;45385;-61
2023/05/27 09:17:43;;;;;;;;;9.50;8.50;;;;;20.56;37.71;101673.28;4976194;28;45720;-61
2023/05/27 09:20:10;;;;;;;;;11.00;10.50;;;;;20.61;37.72;101671.28;4959813;28;47132;-61
2023/05/27 09:22:36;;;;;;;;;10.75;9.00;;;;;20.67;37.28;101663.03;4979042;28;45686;-61
2023/05/27 09:25:02;;;;;;;;;10.25;9.50;;;;;20.72;37.40;101655.72;4980643;28;45336;-61
2023/05/27 09:27:29;;;;;;;;;10.50;9.50;;;;;20.77;37.28;101653.72;4980692;28;45500;-61
2023/05/27 09:29:55;;;;;;;;;9.25;9.00;;;;;20.84;37.40;101653.47;4980529;28;45235;-61
2023/05/27 09:32:25;;;;;;;;;9.50;8.75;;;;;20.89;37.52;101652.34;4988449;28;45395;-61
2023/05/27 09:34:50;;;;;;;;;12.50;9.75;;;;;20.96;37.92;101652.94;4966421;28;45414;-61
2023/05/27 09:37:17;;;;;;;;;8.00;8.00;;;;;21.01;37.92;101644.72;4960628;28;45408;-61
2023/05/27 09:39:42;;;;;;;;;7.50;7.25;;;;;21.07;37.71;101645.31;4960892;28;46328;-61
2023/05/27 09:42:08;;;;;;;;;9.50;8.75;;;;;21.13;37.28;101632.63;4959603;28;45356;-61
2023/05/27 09:44:42;;;;;;;;;9.00;7.50;;;;;21.18;37.51;101626.16;4961093;28;45251;-61
2023/05/27 09:47:09;;;;;;;;;9.50;8.00;;;;;21.28;37.42;101631.91;4960986;28;45365;-61
2023/05/27 09:49:37;;;;;;;;;12.75;9.75;;;;;21.36;37.52;101629.78;4960655;28;46154;-61
2023/05/27 09:52:05;;;;;;;;;9.50;8.00;;;;;21.41;37.67;101625.09;4960196;28;45530;-61
2023/05/27 09:54:32;;;;;;;;;12.25;10.25;;;;;21.51;37.23;101616.63;4960802;28;45411;-61
2023/05/27 09:56:58;;;;;;;;;11.75;9.00;;;;;21.58;37.66;101621.69;4960770;28;45274;-61
2023/05/27 09:59:23;;;;;;;;;10.75;9.00;;;;;21.69;37.69;101629.19;4960681;28;46225;-61
2023/05/27 10:01:50;;;;;;;;;14.25;11.25;;;;;21.78;37.68;101622.53;4960785;28;45329;-61
2023/05/27 10:04:16;;;;;;;;;12.50;9.25;;;;;21.88;37.71;101621.13;4960959;28;45303;-61
2023/05/27 10:06:41;;;;;;;;;12.75;10.50;;;;;21.99;37.73;101617.09;4968341;28;45377;-61
2023/05/27 10:09:07;;;;;;;;;12.00;8.00;;;;;22.11;37.82;101610.28;4963348;28;45971;-61
2023/05/27 10:11:37;;;;;;;;;9.25;9.25;;;;;22.24;37.68;101609.59;4964101;28;45323;-61
2023/05/27 10:14:03;;;;;;;;;11.75;6.50;;;;;22.41;37.82;101605.22;4964170;28;45460;-61
2023/05/27 10:16:29;;;;;;;;;10.75;8.75;;;;;22.55;37.74;101600.06;4963997;28;45412;-61
2023/05/27 10:18:56;;;;;;;;;12.75;10.25;;;;;22.80;38.26;101603.28;4963869;28;46122;-61
2023/05/27 10:21:28;;;;;;;;;11.00;10.25;;;;;23.02;38.14;101597.66;4978905;28;45275;-62
2023/05/27 10:24:02;;;;;;;;;11.00;8.00;;;;;23.28;38.53;101596.28;4962883;28;45410;-61
2023/05/27 10:26:39;;;;;;;;;10.00;7.25;;;;;23.58;38.19;101590.16;4963530;28;45555;-61
2023/05/27 10:29:09;;;;;;;;;15.75;9.25;;;;;23.90;38.54;101600.91;4978774;28;47583;-61
2023/05/27 10:31:36;;;;;;;;;11.25;8.50;;;;;24.25;38.50;101586.41;4978942;28;45258;-60
2023/05/27 10:34:05;;;;;;;;;12.50;10.50;;;;;24.66;39.06;101591.19;4976150;28;45348;-61
2023/05/27 10:36:31;;;;;;;;;10.75;9.00;;;;;25.17;38.78;101600.63;4963457;28;45536;-62
2023/05/27 10:39:04;;;;;;;;;9.75;7.50;;;;;25.69;39.09;101588.44;4963765;28;45631;-61
2023/05/27 10:41:43;;;;;;;;;12.75;9.75;;;;;26.27;38.79;101589.09;4963528;28;45156;-61
2023/05/27 10:44:10;;;;;;;;;8.50;7.50;;;;;26.84;39.29;101579.88;4963918;28;45334;-67
2023/05/27 10:46:40;;;;;;;;;10.50;8.75;;;;;27.43;38.82;101589.19;4963690;28;45346;-63
2023/05/27 10:49:25;;;;;;;;;12.00;9.25;;;;;28.12;39.18;101587.81;4962293;28;45794;-66
2023/05/27 10:51:51;;;;;;;;;10.00;9.00;;;;;28.66;39.11;101573.72;4963367;28;45236;-67
2023/05/27 10:54:17;;;;;;;;;11.00;8.50;;;;;29.23;39.02;101583.75;4963742;28;45388;-71
2023/05/27 10:56:50;;;;;;;;;8.50;7.25;;;;;29.78;39.19;101576.56;4963389;28;45369;-65
2023/05/27 10:59:25;;;;;;;;;12.25;9.25;;;;;30.35;38.80;101564.66;4963318;28;45490;-65
2023/05/27 11:01:53;;;;;;;;;10.00;8.00;;;;;30.90;38.26;101570.72;4961966;28;45269;-65
2023/05/27 11:04:19;;;;;;;;;9.75;7.75;;;;;31.41;38.80;101557.28;4978513;28;45331;-65
2023/05/27 11:07:03;;;;;;;;;10.50;10.25;;;;;31.95;37.75;101563.25;4986380;28;45552;-67
2023/05/27 11:09:28;;;;;;;;;4.25;4.25;;;;;32.47;37.73;101559.38;4978183;28;48587;-65
2023/05/27 11:11:56;;;;;;;;;12.50;8.50;;;;;32.85;37.50;101547.53;4963376;28;45429;-67
2023/05/27 11:14:23;;;;;;;;;9.00;7.50;;;;;33.33;37.34;101561.09;4978050;28;45390;-67
2023/05/27 11:16:51;;;;;;;;;13.00;10.00;;;;;33.73;36.84;101557.09;4962710;28;45495;-68
2023/05/27 11:19:26;;;;;;;;;16.25;15.00;;;;;34.13;36.91;101544.06;4962779;28;45267;-65
2023/05/27 11:21:52;;;;;;;;;11.50;10.50;;;;;34.54;36.44;101551.72;4962660;28;45168;-66
2023/05/27 11:24:19;;;;;;;;;19.25;19.25;;;;;34.94;36.34;101550.25;4961826;28;45909;-65
2023/05/27 11:26:46;;;;;;;;;10.00;10.00;;;;;35.34;35.98;101545.97;4962925;28;45251;-63
2023/05/27 11:29:13;;;;;;;;;11.50;10.50;;;;;35.73;36.35;101553.59;4962752;28;45367;-64
2023/05/27 11:31:40;;;;;;;;;9.50;9.50;;;;;36.09;35.63;101553.34;4979983;28;45512;-61
2023/05/27 11:34:13;;;;;;;;;8.50;8.50;;;;;36.46;35.38;101553.00;4974462;28;45440;-64
2023/05/27 11:36:39;;;;;;;;;11.00;11.00;;;;;36.80;35.10;101555.47;4962426;28;46096;-62
2023/05/27 11:39:05;;;;;;;;;10.75;8.00;;;;;37.05;34.91;101545.31;4962764;28;46256;-62
2023/05/27 11:41:31;;;;;;;;;8.25;6.75;;;;;37.30;34.60;101549.81;4972508;28;45278;-62
2023/05/27 11:44:03;;;;;;;;;10.00;8.75;;;;;37.43;34.22;101536.41;4961775;28;45899;-62
2023/05/27 11:46:40;;;;;;;;;11.50;11.00;;;;;37.51;33.30;101530.88;4971864;28;45448;-62
2023/05/27 11:49:08;;;;;;;;;7.00;7.00;;;;;37.51;32.76;101524.53;4971970;28;45593;-62
2023/05/27 11:51:36;;;;;;;;;9.75;7.50;;;;;37.45;32.80;101526.13;4981508;28;45317;-62
2023/05/27 11:54:01;;;;;;;;;12.00;9.00;;;;;37.31;31.74;101513.16;4967026;28;45385;-62
2023/05/27 11:56:28;;;;;;;;;10.25;7.00;;;;;37.11;32.04;101524.56;4962100;28;45313;-62
2023/05/27 11:58:54;;;;;;;;;10.75;9.75;;;;;36.85;31.08;101511.16;4962587;28;47155;-62
2023/05/27 12:01:20;;;;;;;;;11.50;8.25;;;;;36.55;30.91;101514.47;4967146;28;45323;-62
2023/05/27 12:03:45;;;;;;;;;11.75;9.00;;;;;36.28;30.75;101507.50;4980045;28;45411;-62
2023/05/27 12:06:10;;;;;;;;;10.25;9.00;;;;;35.99;30.11;101518.97;4974134;28;45885;-62
2023/05/27 12:08:36;;;;;;;;;13.25;11.75;;;;;35.66;30.38;101510.72;4961239;28;45860;-62
2023/05/27 12:11:02;;;;;;;;;10.50;9.25;;;;;35.33;30.15;101502.44;4961586;28;45335;-62
2023/05/27 12:13:29;;;;;;;;;8.25;7.50;;;;;35.05;30.05;101505.44;4961688;28;45345;-62
2023/05/27 12:15:54;;;;;;;;;13.00;9.25;;;;;34.75;29.87;101515.84;4961924;28;45258;-61
2023/05/27 12:18:20;;;;;;;;;11.00;9.25;;;;;34.45;29.50;101501.69;4962118;28;46371;-62
2023/05/27 12:20:46;;;;;;;;;9.00;9.00;;;;;34.17;29.73;101497.22;4962245;28;45360;-62
2023/05/27 12:23:11;;;;;;;;;10.25;10.25;;;;;33.91;29.56;101499.91;4962002;28;45400;-62
2023/05/27 12:25:37;;;;;;;;;11.00;9.25;;;;;33.65;29.39;101500.69;4962081;28;45334;-62
2023/05/27 12:28:02;;;;;;;;;11.25;7.25;;;;;33.40;29.33;101502.28;4962087;28;45894;-62
2023/05/27 12:30:28;;;;;;;;;8.25;7.25;;;;;33.17;29.61;101508.13;4961467;28;45247;-62
2023/05/27 12:32:54;;;;;;;;;9.00;7.00;;;;;32.95;29.55;101509.38;4989126;28;45266;-62
2023/05/27 12:35:20;;;;;;;;;11.00;9.75;;;;;32.73;29.82;101502.47;4963342;28;45528;-62
2023/05/27 12:37:45;;;;;;;;;9.25;9.25;;;;;32.57;29.56;101501.19;4962001;28;45226;-62
2023/05/27 12:40:14;;;;;;;;;11.75;10.50;;;;;32.42;29.63;101494.53;4960428;28;45254;-62
2023/05/27 12:42:40;;;;;;;;;11.25;10.00;;;;;32.29;29.73;101496.69;4961961;28;45319;-62
2023/05/27 12:45:07;;;;;;;;;14.25;10.00;;;;;32.20;29.46;101490.28;4961352;28;45572;-76
2023/05/27 12:47:32;;;;;;;;;9.00;7.75;;;;;32.16;29.91;101486.97;4961790;28;47078;-77
2023/05/27 12:49:57;;;;;;;;;8.75;8.50;;;;;32.19;29.76;101488.56;4961750;28;45453;-76
2023/05/27 12:52:23;;;;;;;;;12.75;9.00;;;;;32.23;30.14;101485.41;4960448;28;45320;-77
2023/05/27 12:54:48;;;;;;;;;9.50;9.25;;;;;32.38;30.22;101483.09;4976443;28;45823;-75
2023/05/27 12:57:13;;;;;;;;;9.25;8.25;;;;;32.60;30.60;101475.56;4961360;28;45204;-75
2023/05/27 12:59:39;;;;;;;;;9.75;8.00;;;;;32.83;30.90;101473.38;4960355;28;45255;-75
2023/05/27 13:02:05;;;;;;;;;10.75;9.50;;;;;33.20;30.95;101480.59;4961857;28;45262;-75
2023/05/27 13:04:30;;;;;;;;;10.25;9.25;;;;;33.56;31.40;101477.09;4961700;28;45219;-76
2023/05/27 13:06:56;;;;;;;;;8.00;7.00;;;;;33.95;31.12;101468.63;4969982;28;45361;-75
2023/05/27 13:09:21;;;;;;;;;11.00;7.00;;;;;34.39;31.09;101472.34;4961686;28;45267;-75
2023/05/27 13:11:47;;;;;;;;;8.00;8.00;;;;;34.84;31.25;101465.72;4961673;28;45199;-75
2023/05/27 13:14:12;;;;;;;;;9.00;9.00;;;;;35.30;31.03;101471.72;4960408;28;45517;-76
2023/05/27 13:16:38;;;;;;;;;8.00;8.00;;;;;35.76;31.06;101473.16;4960978;28;45482;-76
2023/05/27 13:19:03;;;;;;;;;9.25;9.25;;;;;36.23;30.86;101471.63;4961363;28;45386;-77
2023/05/27 13:21:29;;;;;;;;;10.75;9.25;;;;;36.65;31.40;101467.75;4961223;28;45461;-77
2023/05/27 13:23:54;;;;;;;;;8.00;7.25;;;;;37.08;30.89;101465.53;4960169;28;45554;-77
2023/05/27 13:26:20;;;;;;;;;8.75;8.00;;;;;37.44;31.00;101455.06;4961041;28;45259;-77
2023/05/27 13:28:46;;;;;;;;;10.75;8.00;;;;;37.83;30.82;101459.56;4961363;28;45403;-77
2023/05/27 13:31:12;;;;;;;;;9.00;8.00;;;;;38.22;31.15;101466.72;4972514;28;45461;-78
2023/05/27 13:33:38;;;;;;;;;6.75;6.50;;;;;38.53;30.36;101466.56;4978416;28;45254;-78
2023/05/27 13:36:04;;;;;;;;;9.25;9.25;;;;;38.82;30.18;101458.53;4961021;28;45292;-79
2023/05/27 13:38:29;;;;;;;;;8.25;8.00;;;;;39.07;30.49;101455.44;4961126;28;45247;-79
2023/05/27 13:40:55;;;;;;;;;11.75;8.00;;;;;39.26;29.75;101449.34;4961269;28;45293;-79
2023/05/27 13:43:20;;;;;;;;;8.50;8.50;;;;;39.44;29.78;101457.13;4959857;28;45160;-79
2023/05/27 13:45:45;;;;;;;;;7.50;7.50;;;;;39.45;29.57;101420.34;4960890;28;50657;-80
2023/05/27 13:48:11;;;;;;;;;9.25;9.25;;;;;39.76;29.28;101441.19;4961061;28;45159;-82
2023/05/27 13:50:36;;;;;;;;;10.25;9.75;;;;;39.97;29.32;101447.66;4961259;28;45240;-81
2023/05/27 13:53:01;;;;;;;;;10.75;10.00;;;;;40.15;29.01;101444.41;4960693;28;45219;-80
2023/05/27 13:55:27;;;;;;;;;9.75;9.25;;;;;40.33;29.09;101441.16;4960641;28;48405;-81
2023/05/27 13:57:52;;;;;;;;;11.25;9.00;;;;;40.50;28.79;101438.06;4960995;28;45365;-81
2023/05/27 14:00:18;;;;;;;;;7.75;7.75;;;;;40.65;28.95;101447.06;4961111;28;46022;-81
2023/05/27 14:02:43;;;;;;;;;10.00;7.50;;;;;40.77;28.93;101437.16;4961009;28;45582;-81
2023/05/27 14:05:10;;;;;;;;;9.75;8.75;;;;;40.87;29.01;101435.91;4965971;28;46122;-80
2023/05/27 14:07:40;;;;;;;;;8.25;7.25;;;;;40.92;28.52;101433.38;4963832;28;45315;-79
2023/05/27 14:10:06;;;;;;;;;7.25;6.50;;;;;40.90;28.22;101430.00;4960404;28;45500;-60
2023/05/27 14:12:32;;;;;;;;;9.75;9.75;;;;;40.83;28.15;101429.13;4960498;28;45644;-72
2023/05/27 14:14:57;;;;;;;;;12.50;10.25;;;;;40.68;27.92;101421.00;4960478;28;46151;-75
2023/05/27 14:17:23;;;;;;;;;10.00;7.75;;;;;40.54;28.10;101425.59;4960711;28;45399;-72
2023/05/27 14:19:48;;;;;;;;;10.00;9.00;;;;;40.35;27.94;101419.78;4960891;28;45531;-69
2023/05/27 14:22:14;;;;;;;;;10.25;9.75;;;;;40.18;27.66;101415.66;4960286;28;45469;-61
2023/05/27 14:24:39;;;;;;;;;11.00;10.25;;;;;39.98;27.54;101403.44;4960436;28;46111;-63
2023/05/27 14:27:05;;;;;;;;;10.00;7.75;;;;;39.76;27.39;101402.69;4958930;28;46056;-80
2023/05/27 14:29:30;;;;;;;;;10.25;9.25;;;;;39.57;27.42;101403.31;4960168;28;45357;-76
2023/05/27 14:31:56;;;;;;;;;9.75;8.75;;;;;39.37;26.95;101398.50;4979399;28;51801;-70
2023/05/27 14:34:21;;;;;;;;;9.75;9.25;;;;;39.18;27.21;101395.34;4969999;28;46068;-66
2023/05/27 14:36:46;;;;;;;;;10.00;10.00;;;;;39.01;27.51;101400.22;4959293;28;45391;-67
2023/05/27 14:39:12;;;;;;;;;10.00;9.50;;;;;38.80;27.37;101397.47;4960275;28;45447;-64
2023/05/27 14:41:37;;;;;;;;;11.75;9.75;;;;;38.55;27.16;101388.69;4960178;28;45531;-71
2023/05/27 14:44:02;;;;;;;;;11.25;10.25;;;;;38.31;26.90;101393.44;4959140;28;47268;-62
2023/05/27 14:46:28;;;;;;;;;12.75;9.75;;;;;38.04;27.33;101393.88;4958976;28;45258;-62
2023/05/27 14:48:53;;;;;;;;;7.25;6.00;;;;;37.76;27.51;101388.13;4960670;28;45223;-64
2023/05/27 14:51:18;;;;;;;;;10.75;8.50;;;;;37.49;27.14;101387.69;4959790;28;52527;-62
2023/05/27 14:53:44;;;;;;;;;9.75;9.75;;;;;37.18;27.07;101398.72;4960941;28;45347;-63
2023/05/27 14:56:09;;;;;;;;;8.00;7.25;;;;;36.86;27.54;101387.78;4962738;28;45505;-63
2023/05/27 14:58:35;;;;;;;;;10.50;8.50;;;;;36.56;26.96;101400.41;4963046;28;45549;-63
2023/05/27 15:01:00;;;;;;;;;11.00;8.75;;;;;36.24;27.40;101404.91;4961020;28;45585;-63
2023/05/27 15:03:25;;;;;;;;;8.50;8.00;;;;;35.91;27.56;101397.69;4963256;28;45221;-64
2023/05/27 15:05:51;;;;;;;;;8.75;8.75;;;;;35.59;27.05;101393.06;4971198;28;49589;-64
2023/05/27 15:08:17;;;;;;;;;11.25;9.75;;;;;35.26;27.02;101390.28;4963562;28;45159;-64
2023/05/27 15:10:43;;;;;;;;;8.50;7.75;;;;;34.94;27.15;101381.84;4963160;28;45519;-64
2023/05/27 15:13:10;;;;;;;;;11.25;9.25;;;;;34.61;27.49;101378.16;4963597;28;46674;-64
2023/05/27 15:15:38;;;;;;;;;13.00;10.25;;;;;34.31;27.38;101375.78;4962877;28;45363;-64
2023/05/27 15:18:05;;;;;;;;;11.75;10.75;;;;;34.01;27.35;101383.47;4962177;28;45198;-64
2023/05/27 15:20:31;;;;;;;;;11.75;11.00;;;;;33.71;27.72;101376.56;4963145;28;45214;-64
2023/05/27 15:22:57;;;;;;;;;10.00;9.00;;;;;33.41;27.69;101383.31;4962802;28;46182;-64
2023/05/27 15:25:22;;;;;;;;;12.25;11.25;;;;;33.15;27.57;101376.75;4963091;28;45225;-64
2023/05/27 15:27:47;;;;;;;;;12.75;12.75;;;;;32.89;27.97;101380.25;4963401;28;45483;-64
2023/05/27 15:30:13;;;;;;;;;12.50;10.25;;;;;32.62;28.01;101375.66;4963018;28;45500;-64
2023/05/27 15:32:39;;;;;;;;;14.50;10.75;;;;;32.39;28.04;101384.19;4988145;28;46710;-64
2023/05/27 15:35:05;;;;;;;;;13.50;10.50;;;;;32.18;28.17;101386.25;4966475;28;45386;-64
2023/05/27 15:37:31;;;;;;;;;9.25;9.25;;;;;31.97;28.38;101381.88;4962718;28;45303;-64
2023/05/27 15:39:56;;;;;;;;;12.25;10.00;;;;;31.76;28.62;101372.06;4962715;28;45539;-64
2023/05/27 15:42:22;;;;;;;;;13.00;11.75;;;;;31.61;28.41;101373.50;4962888;28;46132;-64
2023/05/27 15:44:47;;;;;;;;;10.00;9.00;;;;;31.43;28.68;101363.34;4961295;28;45337;-66
2023/05/27 15:47:13;;;;;;;;;14.00;12.00;;;;;31.30;28.56;101356.50;4962474;28;45519;-65
2023/05/27 15:49:38;;;;;;;;;13.00;11.00;;;;;31.18;28.63;101361.19;4962462;28;45323;-62
2023/05/27 15:52:05;;;;;;;;;10.50;10.00;;;;;31.06;28.27;101355.03;4966711;28;45487;-62
2023/05/27 15:54:30;;;;;;;;;9.25;6.50;;;;;30.98;28.91;101349.44;4969185;28;45319;-64
2023/05/27 15:56:56;;;;;;;;;9.50;9.50;;;;;30.89;28.99;101346.59;4962358;28;45321;-64
2023/05/27 15:59:21;;;;;;;;;8.00;7.50;;;;;30.85;29.14;101353.28;4962530;28;45240;-63
2023/05/27 16:01:46;;;;;;;;;10.00;9.00;;;;;30.79;29.03;101348.41;4961316;28;46148;-65
2023/05/27 16:04:12;;;;;;;;;11.50;9.50;;;;;30.74;29.47;101339.81;4962489;28;45277;-64
2023/05/27 16:06:39;;;;;;;;;12.75;10.75;;;;;30.73;29.27;101340.81;4969080;28;45416;-64
2023/05/27 16:09:05;;;;;;;;;10.50;10.50;;;;;30.69;29.13;101339.38;4962417;28;45367;-63
2023/05/27 16:11:30;;;;;;;;;10.25;8.25;;;;;30.70;29.54;101341.13;4962163;28;46344;-65
2023/05/27 16:13:56;;;;;;;;;9.25;8.25;;;;;30.67;28.95;101339.53;4960919;28;45332;-65
2023/05/27 16:16:21;;;;;;;;;11.25;10.25;;;;;30.65;29.80;101338.81;4962318;28;45436;-66
2023/05/27 16:18:46;;;;;;;;;9.00;9.00;;;;;30.64;29.17;101337.09;4962072;28;45453;-64
2023/05/27 16:21:12;;;;;;;;;11.25;10.00;;;;;30.61;29.41;101331.97;4961769;28;46574;-65
2023/05/27 16:23:38;;;;;;;;;9.75;8.75;;;;;30.60;29.14;101335.66;4962236;28;45316;-65
2023/05/27 16:26:03;;;;;;;;;11.50;9.75;;;;;30.57;29.76;101333.25;4962267;28;45231;-64
2023/05/27 16:28:29;;;;;;;;;13.25;12.00;;;;;30.56;29.70;101328.81;4961853;28;45384;-65
2023/05/27 16:30:54;;;;;;;;;11.50;10.00;;;;;30.55;30.06;101324.38;4972029;28;45576;-65
2023/05/27 16:33:20;;;;;;;;;13.00;10.50;;;;;30.54;29.47;101319.94;4973191;28;45450;-65
2023/05/27 16:35:45;;;;;;;;;10.75;9.25;;;;;30.55;29.59;101318.94;4977195;28;45525;-65
2023/05/27 16:38:10;;;;;;;;;11.00;8.50;;;;;30.53;29.30;101307.38;4978923;28;45220;-66
2023/05/27 16:40:35;;;;;;;;;18.50;16.75;;;;;30.56;29.95;101320.66;4979699;28;46099;-66
2023/05/27 16:43:01;;;;;;;;;4.75;3.00;;;;;30.57;29.94;101311.56;4978314;28;45309;-65
2023/05/27 16:45:27;;;;;;;;;12.25;10.00;;;;;30.54;30.27;101309.09;4966834;28;45567;-66
2023/05/27 16:47:54;;;;;;;;;9.00;9.00;;;;;30.54;30.26;101312.69;4975259;28;45529;-66
2023/05/27 16:50:19;;;;;;;;;11.50;11.25;;;;;30.57;30.57;101300.69;4977864;28;46195;-65
2023/05/27 16:52:44;;;;;;;;;11.25;9.00;;;;;30.57;29.52;101311.56;4964189;28;45440;-65
2023/05/27 16:55:10;;;;;;;;;12.25;9.25;;;;;30.57;29.97;101314.25;4972669;28;45499;-65
2023/05/27 16:57:35;;;;;;;;;9.50;9.50;;;;;30.54;30.06;101311.81;4961547;28;45303;-65
2023/05/27 17:00:02;;;;;;;;;13.00;9.00;;;;;30.54;29.96;101309.09;4963890;28;45301;-65
2023/05/27 17:02:28;;;;;;;;;8.25;8.25;;;;;30.48;30.56;101291.56;4977753;28;45196;-65
2023/05/27 17:04:53;;;;;;;;;7.75;4.00;;;;;30.52;30.05;101303.81;4980791;28;45484;-65
2023/05/27 17:07:19;;;;;;;;;9.25;9.25;;;;;30.51;29.99;101301.25;4971554;28;45257;-65
2023/05/27 17:09:45;;;;;;;;;12.25;11.00;;;;;30.47;30.25;101296.06;4976741;28;46011;-66
2023/05/27 17:12:11;;;;;;;;;13.00;10.00;;;;;30.48;30.33;101295.09;4980633;28;45361;-65
2023/05/27 17:14:36;;;;;;;;;10.50;9.75;;;;;30.46;30.08;101291.63;4979251;28;45382;-65
2023/05/27 17:17:02;;;;;;;;;10.25;9.25;;;;;30.44;30.06;101295.47;4978758;28;45410;-65
2023/05/27 17:19:27;;;;;;;;;9.00;9.00;;;;;30.41;30.33;101295.78;4980835;28;45323;-65
2023/05/27 17:21:53;;;;;;;;;15.25;13.00;;;;;30.38;30.21;101296.06;4980505;28;45504;-65
2023/05/27 17:24:20;;;;;;;;;13.00;12.75;;;;;30.35;30.10;101294.47;4980884;28;45499;-65
2023/05/27 17:26:45;;;;;;;;;13.00;13.00;;;;;30.30;30.11;101288.59;4980474;28;45383;-65
2023/05/27 17:29:11;;;;;;;;;16.50;13.25;;;;;30.26;30.07;101292.59;4967156;28;45270;-66